createdAt,value
2018-03-18T00:01:08.225Z,1006.3
2018-03-18T00:06:08.131Z,1006.2
2018-03-18T00:11:08.180Z,1006.3
2018-03-18T00:16:08.186Z,1006.4
2018-03-18T00:21:08.117Z,1006.4
2018-03-18T00:26:08.178Z,1006.5
2018-03-18T00:31:08.351Z,1006.5
2018-03-18T00:36:08.082Z,1006.6
2018-03-18T00:41:08.080Z,1006.5
2018-03-18T00:46:08.333Z,1006.5
2018-03-18T00:51:08.183Z,1006.4
2018-03-18T00:56:10.880Z,1006.5
2018-03-18T01:01:08.310Z,1006.5
2018-03-18T01:06:08.092Z,1006.4
2018-03-18T01:11:08.246Z,1006.5
2018-03-18T01:16:08.081Z,1006.4
2018-03-18T01:21:08.360Z,1006.5
2018-03-18T01:26:08.082Z,1006.5
2018-03-18T01:31:08.285Z,1006.4
2018-03-18T01:36:08.229Z,1006.5
2018-03-18T01:41:08.106Z,1006.4
2018-03-18T01:46:11.184Z,1006.5
2018-03-18T01:51:08.325Z,1006.4
2018-03-18T01:56:08.240Z,1006.5
2018-03-18T02:01:08.288Z,1006.7
2018-03-18T02:06:08.319Z,1006.7
2018-03-18T02:11:08.231Z,1006.6
2018-03-18T02:16:08.268Z,1006.7
2018-03-18T02:21:08.324Z,1006.7
2018-03-18T02:26:08.354Z,1006.8
2018-03-18T02:31:08.138Z,1006.8
2018-03-18T02:36:10.933Z,1006.8
2018-03-18T02:41:08.354Z,1006.9
2018-03-18T02:46:08.414Z,1006.8
2018-03-18T02:51:08.269Z,1006.8
2018-03-18T02:56:08.455Z,1006.7
2018-03-18T03:01:08.365Z,1006.7
2018-03-18T03:06:08.741Z,1006.7
2018-03-18T03:11:08.239Z,1006.7
2018-03-18T03:16:08.354Z,1006.7
2018-03-18T03:21:08.444Z,1006.5
2018-03-18T03:26:08.241Z,1006.5
2018-03-18T03:31:08.484Z,1006.6
2018-03-18T03:36:08.412Z,1006.5
2018-03-18T03:41:08.462Z,1006.5
2018-03-18T03:46:08.398Z,1006.6
2018-03-18T03:51:08.245Z,1006.6
2018-03-18T03:56:09.052Z,1006.7
2018-03-18T04:01:14.195Z,1006.9
2018-03-18T04:06:09.157Z,1006.8
2018-03-18T04:11:09.132Z,1006.8
2018-03-18T04:16:09.208Z,1006.8
2018-03-18T04:21:09.325Z,1006.8
2018-03-18T04:26:09.356Z,1006.7
2018-03-18T04:31:09.199Z,1006.8
2018-03-18T04:36:09.332Z,1006.8
2018-03-18T04:41:09.363Z,1006.9
2018-03-18T04:46:09.419Z,1006.8
2018-03-18T04:51:09.524Z,1007
2018-03-18T04:56:09.572Z,1007
2018-03-18T05:01:09.486Z,1006.9
2018-03-18T05:06:09.487Z,1007
2018-03-18T05:11:09.382Z,1006.9
2018-03-18T05:16:09.603Z,1007
2018-03-18T05:21:09.514Z,1007.1
2018-03-18T05:26:09.702Z,1007
2018-03-18T05:31:09.616Z,1007.1
2018-03-18T05:36:09.545Z,1007
2018-03-18T05:41:09.591Z,1007
2018-03-18T05:46:09.409Z,1007.1
2018-03-18T05:51:09.524Z,1007
2018-03-18T05:56:09.534Z,1007
2018-03-18T06:01:09.594Z,1007.1
2018-03-18T06:06:09.684Z,1007.1
2018-03-18T06:11:09.414Z,1007.3
2018-03-18T06:16:09.614Z,1007.3
2018-03-18T06:21:09.633Z,1007.4
2018-03-18T06:26:09.559Z,1007.4
2018-03-18T06:31:09.592Z,1007.4
2018-03-18T06:36:09.615Z,1007.5
2018-03-18T06:41:09.549Z,1007.5
2018-03-18T06:46:09.419Z,1007.5
2018-03-18T06:51:09.411Z,1007.6
2018-03-18T06:56:09.545Z,1007.7
2018-03-18T07:01:09.404Z,1007.7
2018-03-18T07:06:10.101Z,1007.8
2018-03-18T07:11:09.453Z,1007.9
2018-03-18T07:16:09.391Z,1008.1
2018-03-18T07:21:09.380Z,1008.1
2018-03-18T07:26:09.459Z,1008.2
2018-03-18T07:31:09.455Z,1008.3
2018-03-18T07:36:09.458Z,1008.3
2018-03-18T07:41:09.441Z,1008.3
2018-03-18T07:46:09.468Z,1008.2
2018-03-18T07:51:09.491Z,1008.2
2018-03-18T07:56:09.486Z,1008.1
2018-03-18T08:01:09.475Z,1008.2
2018-03-18T08:06:09.935Z,1008.2
2018-03-18T08:11:09.908Z,1008.2
2018-03-18T08:16:09.428Z,1008.3
2018-03-18T08:21:09.484Z,1008.3
2018-03-18T08:26:12.059Z,1008.5
2018-03-18T08:31:09.485Z,1008.5
2018-03-18T08:36:09.523Z,1008.5
2018-03-18T08:41:10.138Z,1008.4
2018-03-18T08:46:11.851Z,1008.4
2018-03-18T08:51:16.899Z,1008.5
2018-03-18T08:56:11.648Z,1008.3
2018-03-18T09:01:11.583Z,1008.5
2018-03-18T09:06:11.599Z,1008.3
2018-03-18T09:11:11.663Z,1008.4
2018-03-18T09:16:11.661Z,1008.4
2018-03-18T09:21:11.694Z,1008.4
2018-03-18T09:26:11.654Z,1008.2
2018-03-18T09:31:11.665Z,1008.4
2018-03-18T09:36:11.702Z,1008.3
2018-03-18T09:41:11.657Z,1008.1
2018-03-18T09:46:11.680Z,1008.1
2018-03-18T09:51:11.700Z,1008.3
2018-03-18T09:56:11.685Z,1008.3
2018-03-18T10:01:12.044Z,1008.3
2018-03-18T10:06:11.778Z,1008.3
2018-03-18T10:11:11.693Z,1008.2
2018-03-18T10:16:11.877Z,1008.2
2018-03-18T10:21:11.690Z,1008
2018-03-18T10:26:12.899Z,1008.2
2018-03-18T10:31:11.827Z,1008.2
2018-03-18T10:36:11.772Z,1008.1
2018-03-18T10:41:11.714Z,1008.3
2018-03-18T10:46:11.745Z,1008.3
2018-03-18T10:51:12.860Z,1008.2
2018-03-18T10:56:11.727Z,1008.2
2018-03-18T11:01:11.756Z,1008
2018-03-18T11:06:12.091Z,1008.1
2018-03-18T11:11:11.713Z,1008.3
2018-03-18T11:16:12.137Z,1008.2
2018-03-18T11:21:11.737Z,1008.2
2018-03-18T11:26:12.263Z,1008.3
2018-03-18T11:31:11.806Z,1008.3
2018-03-18T11:36:11.893Z,1008.2
2018-03-18T11:41:12.414Z,1008.2
2018-03-18T11:46:12.074Z,1008.1
2018-03-18T11:51:12.338Z,1008.1
2018-03-18T11:56:11.745Z,1008
2018-03-18T12:01:12.117Z,1008.1
2018-03-18T12:06:11.821Z,1008.2
2018-03-18T12:11:11.799Z,1008.3
2018-03-18T12:16:11.776Z,1008.4
2018-03-18T12:21:12.102Z,1008.3
2018-03-18T12:26:11.858Z,1008.3
2018-03-18T12:31:11.785Z,1008.3
2018-03-18T12:36:11.914Z,1008.3
2018-03-18T12:41:12.841Z,1008.4
2018-03-18T12:46:11.746Z,1008.4
2018-03-18T12:51:11.772Z,1008.3
2018-03-18T12:56:11.806Z,1008.4
2018-03-18T13:01:11.750Z,1008.4
2018-03-18T13:06:13.044Z,1008.3
2018-03-18T13:11:11.933Z,1008.4
2018-03-18T13:16:11.808Z,1008.5
2018-03-18T13:21:11.804Z,1008.6
2018-03-18T13:26:11.777Z,1008.7
2018-03-18T13:31:11.797Z,1008.7
2018-03-18T13:36:13.709Z,1008.5
2018-03-18T13:41:18.771Z,1008.7
2018-03-18T13:46:13.662Z,1008.6
2018-03-18T13:51:13.698Z,1008.6
2018-03-18T13:56:13.694Z,1008.7
2018-03-18T14:01:14.546Z,1008.6
2018-03-18T14:06:13.690Z,1008.7
2018-03-18T14:11:14.089Z,1008.8
2018-03-18T14:16:13.736Z,1008.7
2018-03-18T14:21:13.730Z,1008.9
2018-03-18T14:26:15.141Z,1009
2018-03-18T14:31:14.998Z,1009
2018-03-18T14:36:13.792Z,1008.9
2018-03-18T14:41:13.766Z,1009
2018-03-18T14:46:13.906Z,1009
2018-03-18T14:51:14.351Z,1009
2018-03-18T14:56:13.813Z,1009
2018-03-18T15:01:13.707Z,1009.2
2018-03-18T15:06:14.588Z,1009.1
2018-03-18T15:11:15.365Z,1009.2
2018-03-18T15:16:14.195Z,1009.2
2018-03-18T15:21:13.806Z,1009.2
2018-03-18T15:26:13.750Z,1009.3
2018-03-18T15:31:13.762Z,1009.2
2018-03-18T15:36:13.746Z,1009.4
2018-03-18T15:41:13.722Z,1009.5
2018-03-18T15:46:13.804Z,1009.3
2018-03-18T15:51:13.767Z,1009.5
2018-03-18T15:56:13.739Z,1009.5
2018-03-18T16:01:13.761Z,1009.6
2018-03-18T16:06:13.776Z,1009.6
2018-03-18T16:11:13.790Z,1009.6
2018-03-18T16:16:14.569Z,1009.7
2018-03-18T16:21:13.852Z,1009.7
2018-03-18T16:26:13.778Z,1009.9
2018-03-18T16:31:13.940Z,1009.9
2018-03-18T16:36:13.968Z,1009.9
2018-03-18T16:41:13.823Z,1009.9
2018-03-18T16:46:14.578Z,1010
2018-03-18T16:51:13.773Z,1010
2018-03-18T16:56:13.778Z,1009.9
2018-03-18T17:01:15.526Z,1010
2018-03-18T17:06:17.979Z,1010.1
2018-03-18T17:11:13.768Z,1010.3
2018-03-18T17:16:13.904Z,1010.3
2018-03-18T17:21:13.846Z,1010.3
2018-03-18T17:26:13.933Z,1010.3
2018-03-18T17:31:16.842Z,1010.4
2018-03-18T17:36:14.334Z,1010.5
2018-03-18T17:41:13.846Z,1010.6
2018-03-18T17:46:13.827Z,1010.6
2018-03-18T17:51:14.163Z,1010.5
2018-03-18T17:56:14.202Z,1010.5
2018-03-18T18:01:14.662Z,1010.5
2018-03-18T18:06:13.927Z,1010.6
2018-03-18T18:11:14.008Z,1010.6
2018-03-18T18:16:14.347Z,1010.6
2018-03-18T18:21:13.895Z,1010.7
2018-03-18T18:26:13.915Z,1010.7
2018-03-18T18:31:15.679Z,1010.8
2018-03-18T18:36:20.575Z,1010.8
2018-03-18T18:41:15.405Z,1010.9
2018-03-18T18:46:15.430Z,1010.9
2018-03-18T18:51:15.560Z,1010.9
2018-03-18T18:56:16.774Z,1011
2018-03-18T19:01:15.358Z,1010.9
2018-03-18T19:06:18.257Z,1010.9
2018-03-18T19:11:15.499Z,1011.1
2018-03-18T19:16:15.474Z,1011.1
2018-03-18T19:21:15.434Z,1011.1
2018-03-18T19:26:16.455Z,1011.1
2018-03-18T19:31:15.453Z,1011.1
2018-03-18T19:36:15.488Z,1011.1
2018-03-18T19:41:15.675Z,1011.2
2018-03-18T19:46:15.674Z,1011.3
2018-03-18T19:51:15.992Z,1011.4
2018-03-18T19:56:15.857Z,1011.4
2018-03-18T20:01:15.966Z,1011.5
2018-03-18T20:06:15.690Z,1011.5
2018-03-18T20:11:15.700Z,1011.5
2018-03-18T20:16:16.427Z,1011.5
2018-03-18T20:21:15.922Z,1011.6
2018-03-18T20:26:15.801Z,1011.7
2018-03-18T20:31:15.715Z,1011.6
2018-03-18T20:36:15.677Z,1011.7
2018-03-18T20:41:15.820Z,1011.7
2018-03-18T20:46:16.006Z,1011.7
2018-03-18T20:51:15.763Z,1011.8
2018-03-18T20:56:16.675Z,1011.8
2018-03-18T21:01:15.645Z,1011.7
2018-03-18T21:06:15.886Z,1011.7
2018-03-18T21:11:15.986Z,1011.7
2018-03-18T21:16:15.710Z,1011.8
2018-03-18T21:21:16.542Z,1011.8
2018-03-18T21:26:15.753Z,1011.8
2018-03-18T21:31:15.677Z,1011.8
2018-03-18T21:36:15.709Z,1011.8
2018-03-18T21:41:15.929Z,1011.8
2018-03-18T21:46:16.115Z,1011.8
2018-03-18T21:51:15.767Z,1011.9
2018-03-18T21:56:15.694Z,1011.9
2018-03-18T22:01:15.719Z,1011.9
2018-03-18T22:06:15.685Z,1011.8
2018-03-18T22:11:15.712Z,1011.9
2018-03-18T22:16:15.960Z,1011.9
2018-03-18T22:21:15.653Z,1011.9
2018-03-18T22:26:15.714Z,1011.9
2018-03-18T22:31:15.704Z,1011.9
2018-03-18T22:36:15.721Z,1011.9
2018-03-18T22:41:15.870Z,1011.9
2018-03-18T22:46:15.719Z,1012
2018-03-18T22:51:15.956Z,1012
2018-03-18T22:56:15.881Z,1012.1
2018-03-18T23:01:15.721Z,1012
2018-03-18T23:06:15.725Z,1012
2018-03-18T23:11:15.872Z,1012
2018-03-18T23:16:15.999Z,1012
2018-03-18T23:21:15.863Z,1012.1
2018-03-18T23:26:19.156Z,1012.1
2018-03-18T23:31:24.236Z,1012.1
2018-03-18T23:36:19.145Z,1012
2018-03-18T23:41:19.362Z,1012
2018-03-18T23:46:19.138Z,1012
2018-03-18T23:51:19.280Z,1011.9
2018-03-18T23:56:19.168Z,1012
